createdAt,value
2022-09-28T00:00:07.544Z,8.45
2022-09-28T00:01:07.540Z,8.49
2022-09-28T00:02:07.666Z,8.42
2022-09-28T00:03:07.535Z,8.44
2022-09-28T00:04:07.471Z,8.46
2022-09-28T00:05:07.452Z,8.45
2022-09-28T00:06:07.431Z,8.44
2022-09-28T00:07:07.415Z,8.41
2022-09-28T00:08:07.397Z,8.45
2022-09-28T00:09:07.384Z,8.41
2022-09-28T00:10:15.037Z,8.39
2022-09-28T00:12:11.817Z,8.36
2022-09-28T00:13:11.771Z,8.41
2022-09-28T00:15:16.215Z,8.44
2022-09-28T00:16:16.282Z,8.42
2022-09-28T00:18:20.632Z,8.42
2022-09-28T00:19:20.593Z,8.41
2022-09-28T00:20:20.564Z,8.42
2022-09-28T00:21:20.551Z,8.45
2022-09-28T00:22:20.530Z,8.39
2022-09-28T00:23:20.513Z,8.44
2022-09-28T00:24:24.000Z,8.41
2022-09-28T00:25:20.494Z,8.45
2022-09-28T00:26:20.457Z,8.45
2022-09-28T00:27:20.441Z,8.42
2022-09-28T00:28:20.424Z,8.42
2022-09-28T00:29:20.400Z,8.44
2022-09-28T00:30:20.383Z,8.42
2022-09-28T00:31:20.402Z,8.45
2022-09-28T00:32:20.348Z,8.38
2022-09-28T00:33:20.330Z,8.44
2022-09-28T00:34:20.337Z,8.34
2022-09-28T00:35:20.319Z,8.44
2022-09-28T00:36:20.279Z,8.39
2022-09-28T00:37:20.282Z,8.46
2022-09-28T00:38:20.247Z,8.41
2022-09-28T00:39:20.220Z,8.50
2022-09-28T00:40:20.247Z,8.42
2022-09-28T00:41:20.186Z,8.42
2022-09-28T00:42:20.165Z,8.50
2022-09-28T00:43:20.145Z,8.42
2022-09-28T00:44:20.134Z,8.49
2022-09-28T00:45:20.111Z,8.42
2022-09-28T00:46:20.172Z,8.44
2022-09-28T00:47:20.072Z,8.45
2022-09-28T00:48:20.054Z,8.49
2022-09-28T00:49:20.035Z,8.53
2022-09-28T00:50:20.018Z,8.56
2022-09-28T00:51:19.999Z,8.59
2022-09-28T00:52:19.980Z,8.52
2022-09-28T00:53:19.989Z,8.61
2022-09-28T00:54:19.945Z,8.56
2022-09-28T00:55:19.925Z,8.56
2022-09-28T00:56:19.913Z,8.59
2022-09-28T00:57:19.889Z,8.57
2022-09-28T00:58:19.869Z,8.56
2022-09-28T00:59:19.850Z,8.57
2022-09-28T01:00:19.833Z,8.60
2022-09-28T01:01:19.850Z,8.53
2022-09-28T01:02:19.839Z,8.68
2022-09-28T01:03:19.781Z,8.64
2022-09-28T01:04:19.775Z,8.68
2022-09-28T01:05:19.740Z,8.68
2022-09-28T01:06:19.728Z,8.68
2022-09-28T01:07:19.703Z,8.71
2022-09-28T01:08:19.686Z,8.64
2022-09-28T01:09:19.669Z,8.71
2022-09-28T01:10:19.650Z,8.69
2022-09-28T01:11:19.637Z,8.68
2022-09-28T01:12:19.641Z,8.74
2022-09-28T01:13:19.619Z,8.74
2022-09-28T01:14:19.657Z,8.74
2022-09-28T01:15:19.608Z,8.75
2022-09-28T01:16:19.670Z,8.68
2022-09-28T01:17:19.594Z,8.78
2022-09-28T01:18:19.557Z,8.79
2022-09-28T01:19:19.547Z,8.74
2022-09-28T01:20:19.633Z,8.74
2022-09-28T01:21:19.494Z,8.75
2022-09-28T01:22:19.470Z,8.75
2022-09-28T01:23:19.424Z,8.79
2022-09-28T01:24:19.436Z,8.77
2022-09-28T01:25:19.441Z,8.79
2022-09-28T01:26:19.370Z,8.79
2022-09-28T01:27:19.402Z,8.81
2022-09-28T01:28:19.389Z,8.78
2022-09-28T01:29:19.365Z,8.77
2022-09-28T01:30:19.305Z,8.78
2022-09-28T01:31:19.331Z,8.78
2022-09-28T01:32:19.273Z,8.79
2022-09-28T01:33:19.236Z,8.75
2022-09-28T01:34:19.212Z,8.71
2022-09-28T01:35:19.190Z,8.71
2022-09-28T01:36:19.176Z,8.77
2022-09-28T01:37:19.161Z,8.74
2022-09-28T01:38:19.144Z,8.75
2022-09-28T01:39:19.126Z,8.75
2022-09-28T01:40:19.127Z,8.77
2022-09-28T01:41:19.083Z,8.71
2022-09-28T01:42:19.069Z,8.78
2022-09-28T01:43:19.047Z,8.69
2022-09-28T01:44:19.034Z,8.78
2022-09-28T01:45:19.011Z,8.79
2022-09-28T01:46:19.009Z,8.74
2022-09-28T01:47:18.971Z,8.72
2022-09-28T01:48:18.958Z,8.69
2022-09-28T01:49:19.101Z,8.75
2022-09-28T01:50:18.923Z,8.75
2022-09-28T01:51:18.899Z,8.82
2022-09-28T01:52:18.884Z,8.75
2022-09-28T01:53:18.866Z,8.72
2022-09-28T01:54:18.856Z,8.78
2022-09-28T01:55:18.828Z,8.71
2022-09-28T01:56:18.813Z,8.79
2022-09-28T01:57:18.798Z,8.82
2022-09-28T01:58:18.776Z,8.78
2022-09-28T01:59:18.761Z,8.77
2022-09-28T02:00:18.742Z,8.77
2022-09-28T02:01:18.767Z,8.81
2022-09-28T02:02:18.826Z,8.81
2022-09-28T02:03:18.682Z,8.78
2022-09-28T02:04:18.665Z,8.84
2022-09-28T02:05:18.651Z,8.86
2022-09-28T02:06:18.631Z,8.78
2022-09-28T02:07:18.612Z,8.82
2022-09-28T02:08:18.597Z,8.81
2022-09-28T02:09:18.572Z,8.82
2022-09-28T02:10:18.575Z,8.86
2022-09-28T02:11:18.538Z,8.78
2022-09-28T02:12:18.522Z,8.77
2022-09-28T02:13:18.501Z,8.82
2022-09-28T02:14:18.485Z,8.82
2022-09-28T02:15:18.463Z,8.86
2022-09-28T02:16:18.568Z,8.82
2022-09-28T02:17:18.430Z,8.79
2022-09-28T02:18:18.414Z,8.81
2022-09-28T02:19:18.593Z,8.81
2022-09-28T02:20:18.381Z,8.77
2022-09-28T02:21:18.359Z,8.87
2022-09-28T02:22:18.359Z,8.89
2022-09-28T02:23:18.320Z,8.87
2022-09-28T02:24:21.545Z,8.89
2022-09-28T02:25:18.285Z,8.82
2022-09-28T02:26:18.271Z,8.90
2022-09-28T02:27:18.248Z,8.82
2022-09-28T02:28:18.231Z,8.90
2022-09-28T02:29:18.357Z,8.92
2022-09-28T02:30:18.197Z,8.95
2022-09-28T02:31:18.248Z,8.87
2022-09-28T02:32:18.163Z,8.86
2022-09-28T02:33:18.159Z,8.92
2022-09-28T02:34:18.131Z,8.96
2022-09-28T02:35:18.114Z,8.84
2022-09-28T02:36:18.090Z,8.95
2022-09-28T02:37:18.069Z,8.90
2022-09-28T02:38:18.049Z,9.00
2022-09-28T02:39:18.209Z,8.95
2022-09-28T02:40:18.056Z,8.97
2022-09-28T02:41:18.003Z,8.93
2022-09-28T02:42:17.982Z,8.95
2022-09-28T02:43:17.962Z,8.99
2022-09-28T02:44:17.942Z,8.97
2022-09-28T02:45:17.933Z,8.95
2022-09-28T02:46:17.948Z,9.00
2022-09-28T02:47:17.888Z,8.95
2022-09-28T02:48:27.192Z,8.99
2022-09-28T02:49:21.674Z,8.99
2022-09-28T02:50:17.836Z,8.99
2022-09-28T02:51:17.825Z,8.95
2022-09-28T02:52:17.801Z,8.97
2022-09-28T02:53:17.783Z,8.97
2022-09-28T02:54:18.897Z,8.97
2022-09-28T02:55:17.748Z,8.95
2022-09-28T02:56:17.730Z,8.96
2022-09-28T02:57:17.708Z,9.03
2022-09-28T02:58:17.696Z,8.93
2022-09-28T02:59:17.786Z,8.96
2022-09-28T03:00:17.657Z,9.03
2022-09-28T03:01:17.670Z,9.00
2022-09-28T03:02:17.665Z,9.05
2022-09-28T03:03:17.604Z,9.05
2022-09-28T03:04:17.589Z,9.05
2022-09-28T03:05:17.573Z,9.00
2022-09-28T03:06:17.552Z,9.02
2022-09-28T03:07:17.531Z,9.05
2022-09-28T03:08:17.518Z,8.97
2022-09-28T03:09:17.616Z,9.03
2022-09-28T03:10:17.478Z,8.95
2022-09-28T03:11:17.463Z,8.99
2022-09-28T03:12:17.444Z,8.99
2022-09-28T03:13:17.422Z,9.00
2022-09-28T03:14:17.409Z,8.87
2022-09-28T03:15:17.385Z,8.86
2022-09-28T03:16:17.448Z,8.90
2022-09-28T03:17:17.356Z,8.92
2022-09-28T03:18:17.340Z,8.78
2022-09-28T03:19:17.376Z,8.89
2022-09-28T03:20:17.300Z,8.92
2022-09-28T03:21:17.281Z,8.96
2022-09-28T03:22:17.261Z,8.89
2022-09-28T03:23:24.704Z,8.84
2022-09-28T03:24:17.226Z,8.86
2022-09-28T03:25:17.204Z,8.87
2022-09-28T03:26:17.200Z,8.90
2022-09-28T03:27:17.171Z,8.82
2022-09-28T03:28:17.155Z,8.90
2022-09-28T03:29:17.214Z,8.92
2022-09-28T03:30:17.117Z,8.90
2022-09-28T03:31:17.148Z,8.84
2022-09-28T03:32:17.083Z,8.89
2022-09-28T03:33:17.072Z,8.86
2022-09-28T03:34:17.058Z,8.89
2022-09-28T03:35:17.026Z,8.86
2022-09-28T03:36:17.014Z,8.89
2022-09-28T03:37:16.987Z,8.86
2022-09-28T03:38:16.972Z,8.87
2022-09-28T03:39:17.056Z,8.90
2022-09-28T03:40:16.972Z,8.87
2022-09-28T03:41:16.916Z,8.82
2022-09-28T03:42:16.900Z,8.99
2022-09-28T03:43:16.892Z,8.93
2022-09-28T03:44:16.864Z,9.00
2022-09-28T03:45:16.845Z,8.96
2022-09-28T03:46:16.943Z,9.03
2022-09-28T03:47:16.805Z,9.00
2022-09-28T03:48:19.534Z,9.02
2022-09-28T03:49:16.927Z,8.97
2022-09-28T03:50:16.757Z,9.00
2022-09-28T03:51:16.751Z,9.00
2022-09-28T03:52:16.724Z,9.05
2022-09-28T03:53:16.703Z,9.02
2022-09-28T03:54:16.684Z,9.11
2022-09-28T03:55:16.664Z,9.13
2022-09-28T03:56:16.655Z,9.12
2022-09-28T03:57:16.633Z,9.16
2022-09-28T03:58:16.613Z,9.03
2022-09-28T03:59:16.717Z,9.02
2022-09-28T04:00:16.576Z,9.08
2022-09-28T04:01:17.582Z,8.99
2022-09-28T04:02:16.564Z,8.87
2022-09-28T04:03:16.535Z,8.92
2022-09-28T04:04:16.503Z,8.77
2022-09-28T04:05:16.486Z,8.75
2022-09-28T04:06:16.468Z,8.74
2022-09-28T04:07:16.451Z,8.74
2022-09-28T04:08:16.436Z,8.66
2022-09-28T04:09:16.571Z,8.74
2022-09-28T04:10:16.397Z,8.71
2022-09-28T04:11:16.377Z,8.63
2022-09-28T04:12:16.361Z,8.56
2022-09-28T04:13:16.342Z,8.56
2022-09-28T04:14:16.326Z,8.57
2022-09-28T04:15:16.311Z,8.57
2022-09-28T04:16:16.326Z,8.49
2022-09-28T04:17:16.270Z,8.49
2022-09-28T04:18:16.253Z,8.45
2022-09-28T04:19:16.244Z,8.36
2022-09-28T04:20:16.227Z,8.34
2022-09-28T04:21:16.202Z,8.35
2022-09-28T04:22:16.181Z,8.35
2022-09-28T04:23:16.174Z,8.27
2022-09-28T04:24:16.145Z,8.34
2022-09-28T04:25:16.126Z,8.31
2022-09-28T04:26:16.107Z,8.31
2022-09-28T04:27:16.087Z,8.27
2022-09-28T04:28:16.070Z,8.21
2022-09-28T04:29:16.090Z,8.17
2022-09-28T04:30:16.041Z,8.27
2022-09-28T04:31:16.045Z,8.23
2022-09-28T04:32:16.002Z,8.23
2022-09-28T04:33:15.991Z,8.28
2022-09-28T04:34:15.962Z,8.17
2022-09-28T04:35:15.944Z,8.18
2022-09-28T04:36:15.925Z,8.20
2022-09-28T04:37:15.908Z,8.21
2022-09-28T04:38:23.510Z,8.17
2022-09-28T04:39:15.868Z,8.20
2022-09-28T04:40:15.959Z,8.27
2022-09-28T04:41:15.833Z,8.28
2022-09-28T04:42:15.850Z,8.32
2022-09-28T04:43:15.797Z,8.21
2022-09-28T04:44:15.784Z,8.32
2022-09-28T04:45:15.764Z,8.34
2022-09-28T04:46:15.809Z,8.28
2022-09-28T04:47:15.726Z,8.34
2022-09-28T04:48:15.704Z,8.35
2022-09-28T04:49:15.723Z,8.34
2022-09-28T04:50:15.672Z,8.32
2022-09-28T04:51:15.653Z,8.32
2022-09-28T04:52:18.291Z,8.32
2022-09-28T04:53:15.615Z,8.27
2022-09-28T04:54:15.597Z,8.31
2022-09-28T04:55:15.576Z,8.35
2022-09-28T04:56:15.565Z,8.28
2022-09-28T04:57:15.541Z,8.32
2022-09-28T04:58:15.523Z,8.27
2022-09-28T04:59:15.628Z,8.17
2022-09-28T05:00:15.492Z,8.17
2022-09-28T05:01:15.532Z,8.18
2022-09-28T05:02:15.555Z,8.08
2022-09-28T05:03:15.431Z,8.14
2022-09-28T05:04:15.413Z,8.13
2022-09-28T05:05:15.397Z,8.09
2022-09-28T05:06:15.380Z,8.02
2022-09-28T05:07:15.363Z,8.06
2022-09-28T05:08:15.342Z,8.08
2022-09-28T05:09:15.373Z,8.05
2022-09-28T05:10:15.304Z,8.09
2022-09-28T05:11:15.288Z,8.02
2022-09-28T05:12:15.265Z,8.08
2022-09-28T05:13:15.255Z,8.01
2022-09-28T05:14:15.229Z,7.85
2022-09-28T05:15:15.227Z,7.90
2022-09-28T05:16:15.239Z,7.95
2022-09-28T05:17:15.177Z,7.91
2022-09-28T05:18:15.157Z,7.95
2022-09-28T05:19:15.206Z,7.98
2022-09-28T05:20:15.118Z,7.87
2022-09-28T05:21:15.122Z,7.87
2022-09-28T05:22:15.098Z,7.87
2022-09-28T05:23:15.065Z,7.85
2022-09-28T05:24:15.044Z,7.84
2022-09-28T05:25:15.027Z,7.78
2022-09-28T05:26:15.011Z,7.78
2022-09-28T05:27:14.991Z,7.74
2022-09-28T05:28:14.972Z,7.77
2022-09-28T05:29:15.055Z,7.84
2022-09-28T05:30:14.934Z,7.84
2022-09-28T05:31:15.079Z,7.87
2022-09-28T05:32:14.901Z,7.96
2022-09-28T05:33:14.881Z,7.91
2022-09-28T05:34:14.867Z,8.01
2022-09-28T05:35:14.848Z,7.98
2022-09-28T05:36:14.825Z,7.96
2022-09-28T05:37:14.813Z,7.96
2022-09-28T05:38:14.787Z,7.96
2022-09-28T05:39:14.838Z,7.95
2022-09-28T05:40:14.955Z,8.01
2022-09-28T05:41:14.735Z,8.05
2022-09-28T05:42:14.713Z,8.02
2022-09-28T05:43:14.697Z,8.01
2022-09-28T05:44:14.817Z,7.96
2022-09-28T05:45:14.660Z,8.13
2022-09-28T05:46:14.811Z,8.06
2022-09-28T05:47:14.631Z,8.11
2022-09-28T05:48:14.604Z,8.05
2022-09-28T05:49:14.589Z,8.05
2022-09-28T05:50:14.567Z,8.05
2022-09-28T05:51:14.549Z,8.06
2022-09-28T05:52:14.530Z,8.06
2022-09-28T05:53:14.516Z,8.11
2022-09-28T05:54:14.550Z,8.08
2022-09-28T05:55:14.481Z,8.01
2022-09-28T05:56:14.458Z,8.09
2022-09-28T05:57:14.444Z,8.09
2022-09-28T05:58:14.428Z,8.05
2022-09-28T05:59:14.404Z,8.13
2022-09-28T06:00:14.389Z,8.08
2022-09-28T06:01:14.458Z,8.08
2022-09-28T06:02:14.400Z,8.09
2022-09-28T06:03:14.336Z,8.11
2022-09-28T06:04:14.413Z,8.14
2022-09-28T06:05:14.294Z,8.09
2022-09-28T06:06:14.275Z,8.11
2022-09-28T06:07:14.261Z,8.14
2022-09-28T06:08:14.240Z,8.14
2022-09-28T06:09:14.226Z,8.23
2022-09-28T06:10:14.203Z,8.20
2022-09-28T06:11:14.191Z,8.16
2022-09-28T06:12:14.170Z,8.16
2022-09-28T06:13:14.180Z,8.17
2022-09-28T06:14:14.173Z,8.27
2022-09-28T06:15:14.113Z,8.35
2022-09-28T06:16:14.138Z,8.28
2022-09-28T06:17:14.077Z,8.35
2022-09-28T06:18:14.060Z,8.41
2022-09-28T06:19:14.039Z,8.46
2022-09-28T06:20:14.021Z,8.45
2022-09-28T06:21:14.005Z,8.54
2022-09-28T06:22:13.986Z,8.59
2022-09-28T06:23:13.975Z,8.54
2022-09-28T06:24:14.002Z,8.60
2022-09-28T06:25:13.940Z,8.72
2022-09-28T06:26:13.918Z,8.69
2022-09-28T06:27:13.910Z,8.77
2022-09-28T06:28:13.899Z,8.74
2022-09-28T06:29:19.231Z,8.75
2022-09-28T06:30:13.844Z,8.79
2022-09-28T06:31:13.874Z,8.86
2022-09-28T06:32:13.811Z,8.87
2022-09-28T06:33:13.797Z,8.86
2022-09-28T06:34:13.820Z,8.81
2022-09-28T06:35:13.754Z,8.82
2022-09-28T06:36:13.739Z,8.78
2022-09-28T06:37:13.725Z,8.72
2022-09-28T06:38:13.699Z,8.72
2022-09-28T06:39:13.685Z,8.72
2022-09-28T06:40:13.675Z,8.75
2022-09-28T06:41:13.650Z,8.79
2022-09-28T06:42:13.628Z,8.71
2022-09-28T06:43:13.613Z,8.74
2022-09-28T06:44:13.694Z,8.77
2022-09-28T06:45:13.576Z,8.75
2022-09-28T06:46:13.693Z,8.78
2022-09-28T06:47:13.541Z,8.72
2022-09-28T06:48:13.524Z,8.71
2022-09-28T06:49:18.659Z,8.72
2022-09-28T06:50:13.485Z,8.75
2022-09-28T06:51:13.468Z,8.68
2022-09-28T06:52:13.453Z,8.71
2022-09-28T06:53:13.437Z,8.68
2022-09-28T06:54:13.419Z,8.66
2022-09-28T06:55:13.398Z,8.68
2022-09-28T06:56:13.379Z,8.69
2022-09-28T06:57:13.362Z,8.71
2022-09-28T06:58:13.344Z,8.72
2022-09-28T06:59:13.326Z,8.61
2022-09-28T07:00:13.308Z,8.72
2022-09-28T07:01:13.314Z,8.78
2022-09-28T07:02:13.316Z,8.77
2022-09-28T07:03:13.256Z,8.78
2022-09-28T07:04:13.319Z,8.93
2022-09-28T07:05:13.224Z,8.95
2022-09-28T07:06:13.204Z,9.09
2022-09-28T07:07:13.183Z,9.16
2022-09-28T07:08:13.164Z,9.27
2022-09-28T07:09:30.655Z,9.30
2022-09-28T07:10:13.128Z,9.29
2022-09-28T07:11:13.114Z,9.44
2022-09-28T07:12:13.101Z,9.56
2022-09-28T07:13:34.095Z,9.58
2022-09-28T07:14:22.781Z,9.63
2022-09-28T07:15:13.039Z,9.66
2022-09-28T07:16:13.054Z,9.67
2022-09-28T07:17:14.586Z,9.72
2022-09-28T07:18:13.034Z,9.70
2022-09-28T07:19:12.973Z,9.73
2022-09-28T07:20:18.801Z,9.70
2022-09-28T07:21:22.257Z,9.76
2022-09-28T07:22:17.467Z,9.66
2022-09-28T07:23:18.854Z,9.70
2022-09-28T07:24:12.882Z,9.66
2022-09-28T07:25:12.867Z,9.67
2022-09-28T07:26:12.846Z,9.72
2022-09-28T07:27:12.830Z,9.76
2022-09-28T07:28:12.813Z,9.77
2022-09-28T07:29:12.795Z,9.76
2022-09-28T07:30:12.779Z,9.69
2022-09-28T07:31:12.795Z,9.69
2022-09-28T07:32:12.739Z,9.73
2022-09-28T07:33:12.726Z,9.70
2022-09-28T07:34:12.707Z,9.73
2022-09-28T07:35:12.690Z,9.69
2022-09-28T07:36:12.672Z,9.64
2022-09-28T07:37:12.659Z,9.72
2022-09-28T07:38:12.636Z,9.76
2022-09-28T07:39:12.622Z,9.70
2022-09-28T07:40:12.601Z,9.77
2022-09-28T07:41:12.585Z,9.85
2022-09-28T07:42:12.565Z,9.90
2022-09-28T07:43:12.549Z,10.00
2022-09-28T07:44:12.533Z,10.00
2022-09-28T07:45:12.516Z,10.09
2022-09-28T07:46:12.657Z,10.21
2022-09-28T07:47:12.483Z,10.25
2022-09-28T07:49:12.583Z,10.36
2022-09-28T07:50:12.426Z,10.55
2022-09-28T07:51:12.411Z,10.64
2022-09-28T07:52:12.393Z,10.71
2022-09-28T07:53:12.379Z,10.82
2022-09-28T07:54:12.364Z,10.83
2022-09-28T07:55:12.349Z,10.95
2022-09-28T07:56:12.329Z,10.98
2022-09-28T07:57:12.311Z,11.16
2022-09-28T07:58:12.297Z,11.16
2022-09-28T07:59:12.277Z,11.13
2022-09-28T08:00:12.260Z,11.26
2022-09-28T08:01:12.273Z,11.20
2022-09-28T08:02:12.250Z,11.12
2022-09-28T08:03:12.208Z,11.02
2022-09-28T08:04:12.193Z,11.00
2022-09-28T08:05:12.179Z,11.01
2022-09-28T08:06:12.162Z,11.02
2022-09-28T08:07:12.143Z,10.90
2022-09-28T08:08:12.127Z,10.90
2022-09-28T08:09:12.112Z,10.84
2022-09-28T08:10:12.096Z,10.89
2022-09-28T08:11:12.077Z,10.83
2022-09-28T08:12:12.060Z,10.71
2022-09-28T08:13:12.041Z,10.75
2022-09-28T08:14:12.026Z,10.79
2022-09-28T08:15:12.013Z,10.89
2022-09-28T08:16:12.091Z,10.86
2022-09-28T08:17:11.977Z,11.05
2022-09-28T08:18:11.970Z,11.16
2022-09-28T08:19:11.943Z,11.22
2022-09-28T08:20:11.931Z,11.30
2022-09-28T08:21:11.911Z,11.34
2022-09-28T08:22:11.895Z,11.45
2022-09-28T08:23:11.882Z,11.43
2022-09-28T08:24:11.863Z,11.60
2022-09-28T08:25:11.851Z,11.71
2022-09-28T08:26:15.396Z,11.88
2022-09-28T08:27:11.818Z,11.96
2022-09-28T08:28:11.799Z,12.08
2022-09-28T08:29:11.786Z,12.21
2022-09-28T08:30:11.766Z,12.21
2022-09-28T08:31:11.798Z,12.18
2022-09-28T08:32:11.734Z,12.21
2022-09-28T08:33:11.721Z,12.21
2022-09-28T08:34:11.704Z,12.17
2022-09-28T08:35:11.691Z,12.15
2022-09-28T08:36:11.672Z,12.15
2022-09-28T08:37:11.660Z,12.03
2022-09-28T08:38:11.642Z,11.97
2022-09-28T08:39:11.629Z,11.99
2022-09-28T08:40:11.611Z,11.85
2022-09-28T08:41:11.599Z,11.93
2022-09-28T08:42:11.580Z,11.88
2022-09-28T08:43:11.565Z,11.95
2022-09-28T08:44:11.547Z,11.89
2022-09-28T08:45:11.540Z,12.00
2022-09-28T08:46:11.541Z,11.99
2022-09-28T08:47:11.501Z,11.96
2022-09-28T08:48:11.500Z,12.00
2022-09-28T08:49:30.563Z,11.97
2022-09-28T08:50:11.472Z,12.02
2022-09-28T08:51:11.439Z,12.05
2022-09-28T08:52:11.427Z,12.07
2022-09-28T08:53:11.409Z,11.95
2022-09-28T08:54:12.105Z,11.89
2022-09-28T08:55:11.375Z,11.88
2022-09-28T08:56:11.378Z,11.91
2022-09-28T08:57:11.343Z,11.93
2022-09-28T08:58:11.337Z,11.88
2022-09-28T08:59:11.350Z,11.88
2022-09-28T09:00:11.847Z,11.93
2022-09-28T09:01:11.344Z,11.93
2022-09-28T09:02:11.308Z,11.91
2022-09-28T09:03:11.249Z,11.86
2022-09-28T09:04:11.298Z,11.91
2022-09-28T09:05:11.220Z,11.99
2022-09-28T09:06:14.209Z,11.97
2022-09-28T09:07:11.185Z,12.15
2022-09-28T09:08:11.168Z,12.15
2022-09-28T09:09:11.161Z,12.35
2022-09-28T09:10:11.139Z,12.55
2022-09-28T09:11:11.126Z,12.61
2022-09-28T09:12:11.122Z,12.63
2022-09-28T09:13:11.091Z,12.48
2022-09-28T09:14:11.131Z,12.58
2022-09-28T09:15:11.060Z,12.47
2022-09-28T09:16:11.044Z,12.55
2022-09-28T09:17:11.037Z,12.37
2022-09-28T09:18:11.014Z,12.44
2022-09-28T09:19:10.998Z,12.33
2022-09-28T09:20:10.984Z,12.20
2022-09-28T09:21:10.983Z,12.23
2022-09-28T09:22:10.955Z,12.12
2022-09-28T09:23:10.964Z,12.10
2022-09-28T09:24:10.939Z,12.05
2022-09-28T09:25:10.904Z,11.95
2022-09-28T09:26:11.067Z,11.70
2022-09-28T09:27:10.870Z,11.68
2022-09-28T09:28:10.861Z,11.60
2022-09-28T09:29:10.839Z,11.45
2022-09-28T09:30:10.828Z,11.49
2022-09-28T09:31:10.844Z,11.27
2022-09-28T09:32:10.795Z,11.25
2022-09-28T09:33:10.775Z,11.13
2022-09-28T09:34:10.789Z,11.01
2022-09-28T09:35:10.749Z,11.13
2022-09-28T09:36:10.732Z,11.00
2022-09-28T09:37:10.715Z,10.94
2022-09-28T09:38:10.697Z,10.90
2022-09-28T09:39:10.678Z,10.94
2022-09-28T09:40:10.664Z,11.05
2022-09-28T09:41:10.734Z,11.02
2022-09-28T09:42:10.635Z,11.08
2022-09-28T09:43:10.613Z,11.18
2022-09-28T09:44:10.683Z,11.15
2022-09-28T09:45:10.581Z,11.18
2022-09-28T09:46:10.594Z,11.30
2022-09-28T09:47:10.552Z,11.41
2022-09-28T09:48:10.535Z,11.48
2022-09-28T09:49:10.517Z,11.43
2022-09-28T09:50:10.541Z,11.55
2022-09-28T09:51:10.486Z,11.62
2022-09-28T09:52:10.481Z,11.74
2022-09-28T09:53:10.454Z,12.03
2022-09-28T09:54:10.514Z,12.25
2022-09-28T09:55:10.420Z,12.50
2022-09-28T09:56:10.405Z,12.54
2022-09-28T09:57:10.390Z,12.61
2022-09-28T09:58:10.374Z,12.69
2022-09-28T09:59:10.475Z,12.62
2022-09-28T10:00:10.341Z,12.66
2022-09-28T10:01:10.362Z,12.62
2022-09-28T10:02:11.867Z,12.93
2022-09-28T10:03:10.293Z,13.26
2022-09-28T10:04:10.283Z,13.64
2022-09-28T10:05:10.263Z,13.86
2022-09-28T10:06:10.251Z,14.08
2022-09-28T10:07:10.234Z,14.33
2022-09-28T10:08:10.221Z,14.38
2022-09-28T10:09:10.209Z,14.58
2022-09-28T10:10:10.191Z,14.58
2022-09-28T10:11:10.170Z,14.62
2022-09-28T10:12:10.159Z,14.52
2022-09-28T10:13:10.141Z,14.49
2022-09-28T10:14:10.130Z,14.33
2022-09-28T10:15:10.110Z,14.25
2022-09-28T10:16:10.099Z,14.08
2022-09-28T10:17:10.177Z,14.00
2022-09-28T10:18:10.075Z,13.85
2022-09-28T10:19:10.080Z,13.68
2022-09-28T10:20:10.042Z,13.68
2022-09-28T10:21:10.023Z,13.70
2022-09-28T10:22:10.010Z,13.76
2022-09-28T10:23:09.994Z,13.95
2022-09-28T10:24:09.981Z,14.18
2022-09-28T10:25:09.964Z,14.43
2022-09-28T10:26:09.959Z,14.63
2022-09-28T10:27:09.935Z,14.78
2022-09-28T10:28:09.919Z,14.86
2022-09-28T10:29:09.906Z,15.17
2022-09-28T10:30:09.895Z,15.45
2022-09-28T10:31:09.880Z,15.52
2022-09-28T10:32:09.863Z,15.47
2022-09-28T10:33:09.847Z,15.32
2022-09-28T10:34:09.838Z,15.18
2022-09-28T10:35:09.817Z,14.86
2022-09-28T10:36:09.804Z,14.78
2022-09-28T10:37:09.790Z,14.49
2022-09-28T10:38:09.777Z,14.26
2022-09-28T10:39:09.762Z,14.04
2022-09-28T10:40:09.747Z,13.87
2022-09-28T10:41:09.791Z,13.78
2022-09-28T10:42:09.720Z,13.50
2022-09-28T10:43:09.702Z,13.33
2022-09-28T10:44:09.693Z,13.21
2022-09-28T10:45:09.671Z,13.08
2022-09-28T10:46:09.715Z,13.05
2022-09-28T10:47:09.642Z,13.01
2022-09-28T10:48:09.633Z,12.98
2022-09-28T10:49:09.616Z,12.86
2022-09-28T10:50:09.602Z,12.91
2022-09-28T10:51:09.589Z,12.94
2022-09-28T10:52:09.572Z,12.98
2022-09-28T10:53:09.555Z,13.01
2022-09-28T10:54:09.542Z,12.99
2022-09-28T10:55:09.523Z,12.90
2022-09-28T10:56:09.509Z,12.86
2022-09-28T10:57:13.388Z,12.94
2022-09-28T10:58:09.496Z,12.93
2022-09-28T10:59:09.459Z,12.93
2022-09-28T11:00:09.446Z,12.88
2022-09-28T11:01:09.512Z,12.83
2022-09-28T11:02:09.455Z,12.80
2022-09-28T11:03:09.398Z,12.58
2022-09-28T11:04:09.430Z,12.50
2022-09-28T11:05:09.368Z,12.61
2022-09-28T11:06:09.353Z,12.45
2022-09-28T11:07:09.370Z,12.51
2022-09-28T11:08:09.321Z,12.51
2022-09-28T11:09:09.305Z,12.45
2022-09-28T11:10:09.294Z,12.36
2022-09-28T11:11:09.275Z,12.40
2022-09-28T11:12:09.258Z,12.32
2022-09-28T11:13:09.248Z,12.30
2022-09-28T11:14:09.233Z,12.25
2022-09-28T11:15:09.225Z,12.18
2022-09-28T11:16:09.200Z,12.18
2022-09-28T11:17:09.219Z,12.20
2022-09-28T11:18:09.168Z,12.18
2022-09-28T11:19:09.147Z,12.17
2022-09-28T11:20:09.134Z,12.26
2022-09-28T11:21:12.496Z,12.18
2022-09-28T11:22:11.861Z,12.02
2022-09-28T11:23:09.085Z,12.10
2022-09-28T11:24:09.072Z,11.96
2022-09-28T11:25:09.053Z,12.02
2022-09-28T11:26:09.041Z,11.95
2022-09-28T11:27:09.030Z,11.96
2022-09-28T11:28:09.008Z,11.86
2022-09-28T11:29:08.994Z,11.96
2022-09-28T11:30:08.978Z,11.91
2022-09-28T11:31:09.064Z,11.99
2022-09-28T11:32:12.412Z,11.96
2022-09-28T11:33:08.925Z,11.86
2022-09-28T11:34:08.914Z,11.96
2022-09-28T11:35:08.894Z,11.96
2022-09-28T11:36:08.954Z,11.85
2022-09-28T11:37:08.864Z,11.85
2022-09-28T11:38:08.849Z,11.85
2022-09-28T11:39:08.841Z,11.85
2022-09-28T11:40:08.817Z,11.83
2022-09-28T11:41:08.800Z,11.81
2022-09-28T11:42:10.990Z,11.86
2022-09-28T11:43:09.539Z,11.95
2022-09-28T11:44:08.751Z,11.91
2022-09-28T11:45:08.736Z,12.05
2022-09-28T11:46:08.824Z,12.08
2022-09-28T11:47:08.703Z,12.20
2022-09-28T11:48:08.690Z,12.28
2022-09-28T11:49:08.673Z,12.44
2022-09-28T11:50:08.662Z,12.61
2022-09-28T11:51:08.643Z,12.78
2022-09-28T11:52:08.627Z,12.88
2022-09-28T11:53:08.607Z,13.02
2022-09-28T11:54:08.606Z,13.13
2022-09-28T11:55:08.581Z,13.17
2022-09-28T11:56:09.195Z,13.28
2022-09-28T11:57:08.545Z,13.37
2022-09-28T11:58:08.531Z,13.43
2022-09-28T11:59:08.516Z,13.61
2022-09-28T12:00:08.505Z,13.75
2022-09-28T12:01:08.483Z,13.78
2022-09-28T12:02:08.592Z,13.82
2022-09-28T12:03:08.598Z,14.00
2022-09-28T12:04:08.442Z,14.11
2022-09-28T12:05:08.427Z,14.25
2022-09-28T12:06:08.409Z,14.36
2022-09-28T12:07:08.402Z,14.40
2022-09-28T12:08:08.391Z,14.38
2022-09-28T12:09:08.362Z,14.36
2022-09-28T12:10:08.350Z,14.34
2022-09-28T12:11:08.333Z,14.23
2022-09-28T12:12:08.321Z,14.31
2022-09-28T12:13:08.304Z,14.25
2022-09-28T12:14:08.288Z,14.26
2022-09-28T12:15:08.270Z,14.28
2022-09-28T12:16:45.188Z,14.18
2022-09-28T12:18:12.266Z,14.20
2022-09-28T12:19:12.204Z,14.16
2022-09-28T12:21:16.161Z,14.41
2022-09-28T12:22:16.134Z,14.38
2022-09-28T12:24:20.104Z,14.52
2022-09-28T12:25:20.083Z,14.45
2022-09-28T12:27:13.463Z,14.49
2022-09-28T12:28:13.451Z,14.51
2022-09-28T12:30:17.436Z,14.48
2022-09-28T12:31:17.409Z,14.49
2022-09-28T12:33:21.346Z,14.33
2022-09-28T12:34:21.319Z,14.31
2022-09-28T12:36:25.299Z,14.36
2022-09-28T12:37:25.264Z,14.41
2022-09-28T12:39:46.662Z,14.71
2022-09-28T12:40:29.235Z,14.81
2022-09-28T12:42:33.691Z,15.32
2022-09-28T12:43:33.680Z,15.43
2022-09-28T12:45:53.118Z,15.29
2022-09-28T12:46:38.145Z,15.18
2022-09-28T12:48:42.103Z,15.17
2022-09-28T12:50:36.996Z,15.05
2022-09-28T12:50:49.963Z,15.11
2022-09-28T12:51:42.041Z,15.07
2022-09-28T12:53:42.011Z,15.07
2022-09-28T12:54:41.999Z,15.04
2022-09-28T12:55:41.984Z,15.08
2022-09-28T12:56:41.971Z,15.02
2022-09-28T12:57:41.967Z,14.99
2022-09-28T12:58:41.947Z,15.05
2022-09-28T12:59:41.928Z,15.23
2022-09-28T13:00:41.912Z,15.39
2022-09-28T13:01:41.959Z,15.51
2022-09-28T13:02:41.935Z,15.51
2022-09-28T13:03:41.870Z,15.41
2022-09-28T13:04:41.853Z,15.41
2022-09-28T13:05:41.841Z,15.48
2022-09-28T13:06:41.827Z,15.44
2022-09-28T13:07:41.816Z,15.51
2022-09-28T13:08:41.797Z,15.45
2022-09-28T13:09:41.791Z,15.33
2022-09-28T13:10:41.770Z,15.29
2022-09-28T13:11:41.766Z,15.32
2022-09-28T13:12:41.741Z,15.18
2022-09-28T13:13:41.726Z,15.10
2022-09-28T13:14:41.718Z,15.05
2022-09-28T13:15:41.754Z,15.04
2022-09-28T13:16:41.687Z,14.92
2022-09-28T13:17:41.678Z,14.89
2022-09-28T13:18:41.655Z,14.82
2022-09-28T13:19:41.641Z,14.81
2022-09-28T13:20:41.624Z,14.77
2022-09-28T13:21:41.612Z,14.86
2022-09-28T13:22:44.277Z,14.79
2022-09-28T13:23:41.588Z,14.70